Time;durP1;ratioP1;P1;durP2;ratioP2;P2;SDS_P1;SDS_P2;PMS_P1;PMS_P2;Temp;Humidity;BMP_temperature;BMP_pressure;BME280_temperature;BME280_humidity;BME280_pressure;Samples;Min_cycle;Max_cycle;Signal;HPM_P1;HPM_P2
2023/06/15 00:01:55;;;;;;;;;;;14.70;99.90;;;;;;4928962;29;19918;-72
2023/06/15 00:04:23;;;;;;;;;;;14.70;99.90;;;;;;4924420;29;19910;-73
2023/06/15 00:06:49;;;;;;;;;;;14.80;99.90;;;;;;4931795;29;19974;-72
2023/06/15 00:09:14;;;;;;;;;;;14.80;99.90;;;;;;4928657;29;19919;-71
2023/06/15 00:11:40;;;;;;;;;;;14.80;99.90;;;;;;4931001;29;19914;-72
2023/06/15 00:14:06;;;;;;;;;;;14.80;99.90;;;;;;4932060;28;19926;-72
2023/06/15 00:16:32;;;;;;;;;;;14.80;99.90;;;;;;4929382;29;19918;-72
2023/06/15 00:19:02;;;;;;;;;;;14.80;99.90;;;;;;4935333;28;19919;-73
2023/06/15 00:21:30;;;;;;;;;;;14.70;99.90;;;;;;4932893;29;19914;-72
2023/06/15 00:24:02;;;;;;;;;;;14.80;99.90;;;;;;4929459;29;19946;-73
2023/06/15 00:26:28;;;;;;;;;;;14.80;99.90;;;;;;4930823;29;20175;-73
2023/06/15 00:28:56;;;;;;;;;;;14.80;99.90;;;;;;4927451;29;20413;-72
2023/06/15 00:31:24;;;;;;;;;;;14.80;99.90;;;;;;4926912;29;19973;-73
2023/06/15 00:33:52;;;;;;;;;;;14.70;99.90;;;;;;4934647;29;20002;-72
2023/06/15 00:36:18;;;;;;;;;;;14.70;99.90;;;;;;4906278;29;19915;-73
2023/06/15 00:38:44;;;;;;;;;;;14.70;99.90;;;;;;4938434;29;20545;-72
2023/06/15 00:41:10;;;;;;;;;;;14.70;99.90;;;;;;4932461;29;19915;-72
2023/06/15 00:43:35;;;;;;;;;;;14.70;99.90;;;;;;4911415;29;19911;-73
2023/06/15 00:46:02;;;;;;;;;;;14.70;99.90;;;;;;4921914;29;20612;-72
2023/06/15 00:48:29;;;;;;;;;;;14.70;99.90;;;;;;4934349;29;20409;-72
2023/06/15 00:51:03;;;;;;;;;;;14.70;99.90;;;;;;4930229;29;19946;-72
2023/06/15 00:53:32;;;;;;;;;;;14.70;99.90;;;;;;4932603;29;19923;-72
2023/06/15 00:55:59;;;;;;;;;;;14.70;99.90;;;;;;4927466;29;19926;-72
2023/06/15 00:58:26;;;;;;;;;;;14.70;99.90;;;;;;4938675;29;19919;-72
2023/06/15 01:00:57;;;;;;;;;;;14.70;99.90;;;;;;4928501;29;19911;-72
2023/06/15 01:03:30;;;;;;;;;;;14.70;99.90;;;;;;4930032;29;19929;-73
2023/06/15 01:05:57;;;;;;;;;;;14.70;99.90;;;;;;4924744;29;20074;-72
2023/06/15 01:08:34;;;;;;;;;;;14.70;99.90;;;;;;4930264;29;19977;-72
2023/06/15 01:11:02;;;;;;;;;;;14.60;99.90;;;;;;4927357;29;19926;-73
2023/06/15 01:13:30;;;;;;;;;;;14.70;99.90;;;;;;4930724;29;19991;-72
2023/06/15 01:15:57;;;;;;;;;;;14.70;99.90;;;;;;4928066;29;20550;-72
2023/06/15 01:18:24;;;;;;;;;;;14.60;99.90;;;;;;4927020;28;19922;-72
2023/06/15 01:20:53;;;;;;;;;;;14.60;99.90;;;;;;4935120;29;19950;-72
2023/06/15 01:23:25;;;;;;;;;;;14.60;99.90;;;;;;4927639;29;19934;-73
2023/06/15 01:26:08;;;;;;;;;;;14.60;99.90;;;;;;4928259;29;20464;-73
2023/06/15 01:28:35;;;;;;;;;;;14.60;99.90;;;;;;4931793;29;19919;-72
2023/06/15 01:31:01;;;;;;;;;;;14.50;99.90;;;;;;4932056;29;19919;-72
2023/06/15 01:33:27;;;;;;;;;;;14.50;99.90;;;;;;4931976;29;19925;-72
2023/06/15 01:35:54;;;;;;;;;;;14.50;99.90;;;;;;4925982;29;19970;-73
2023/06/15 01:38:23;;;;;;;;;;;14.50;99.90;;;;;;4932778;29;19915;-73
2023/06/15 01:40:49;;;;;;;;;;;14.50;99.90;;;;;;4938763;29;19914;-72
2023/06/15 01:43:28;;;;;;;;;;;14.40;99.90;;;;;;4934551;29;19911;-72
2023/06/15 01:45:55;;;;;;;;;;;14.40;99.90;;;;;;4933802;29;19922;-72
2023/06/15 01:48:22;;;;;;;;;;;14.40;99.90;;;;;;4924871;28;19919;-73
2023/06/15 01:50:49;;;;;;;;;;;14.30;99.90;;;;;;4937718;29;19990;-73
2023/06/15 01:53:16;;;;;;;;;;;14.20;99.90;;;;;;4935254;29;19918;-73
2023/06/15 01:55:41;;;;;;;;;;;14.20;99.90;;;;;;4931196;29;19973;-72
2023/06/15 01:58:10;;;;;;;;;;;14.10;99.90;;;;;;4934871;29;19914;-72
2023/06/15 02:00:37;;;;;;;;;;;14.10;99.90;;;;;;4938319;29;19961;-72
2023/06/15 02:03:09;;;;;;;;;;;14.10;99.90;;;;;;4933646;29;19919;-72
2023/06/15 02:05:41;;;;;;;;;;;14.10;99.90;;;;;;4912154;29;19933;-72
2023/06/15 02:08:09;;;;;;;;;;;14.00;99.90;;;;;;4931368;29;19911;-72
2023/06/15 02:10:35;;;;;;;;;;;14.00;99.90;;;;;;4936204;29;20604;-73
2023/06/15 02:13:02;;;;;;;;;;;14.00;99.90;;;;;;4937095;29;19922;-73
2023/06/15 02:15:28;;;;;;;;;;;14.00;99.90;;;;;;4929292;28;19946;-73
2023/06/15 02:17:58;;;;;;;;;;;14.00;99.90;;;;;;4931079;29;19923;-73
2023/06/15 02:20:25;;;;;;;;;;;14.00;99.90;;;;;;4935523;28;19962;-72
2023/06/15 02:22:52;;;;;;;;;;;13.90;99.90;;;;;;4909827;29;19914;-73
2023/06/15 02:25:20;;;;;;;;;;;13.90;99.90;;;;;;4924004;29;19918;-73
2023/06/15 02:27:45;;;;;;;;;;;13.90;99.90;;;;;;4929883;29;19911;-72
2023/06/15 02:30:12;;;;;;;;;;;13.90;99.90;;;;;;4930992;28;20264;-72
2023/06/15 02:32:39;;;;;;;;;;;13.90;99.90;;;;;;4930206;29;19910;-72
2023/06/15 02:35:07;;;;;;;;;;;13.90;99.90;;;;;;4935978;29;19918;-72
2023/06/15 02:37:33;;;;;;;;;;;14.00;99.90;;;;;;4935704;29;19930;-72
2023/06/15 02:39:58;;;;;;;;;;;13.90;99.90;;;;;;4932423;29;19918;-72
2023/06/15 02:42:25;;;;;;;;;;;13.90;99.90;;;;;;4930917;29;20417;-72
2023/06/15 02:44:51;;;;;;;;;;;13.90;99.90;;;;;;4928686;29;19914;-73
2023/06/15 02:47:24;;;;;;;;;;;13.90;99.90;;;;;;4913185;29;20046;-72
2023/06/15 02:49:51;;;;;;;;;;;13.90;99.90;;;;;;4931225;29;19922;-72
2023/06/15 02:52:22;;;;;;;;;;;13.80;99.90;;;;;;4929004;29;19918;-73
2023/06/15 02:54:48;;;;;;;;;;;13.90;99.90;;;;;;4926956;29;19949;-72
2023/06/15 02:57:14;;;;;;;;;;;13.70;99.90;;;;;;4931288;29;20250;-72
2023/06/15 02:59:40;;;;;;;;;;;13.60;99.90;;;;;;4932610;28;20340;-72
2023/06/15 03:02:08;;;;;;;;;;;13.60;99.90;;;;;;4933987;29;19942;-72
2023/06/15 03:04:44;;;;;;;;;;;13.50;99.90;;;;;;4928681;29;19926;-72
2023/06/15 03:07:16;;;;;;;;;;;13.50;99.90;;;;;;4913207;29;19918;-72
2023/06/15 03:09:54;;;;;;;;;;;13.60;99.90;;;;;;4935893;29;20380;-72
2023/06/15 03:12:21;;;;;;;;;;;13.60;99.90;;;;;;4930414;29;19922;-73
2023/06/15 03:14:50;;;;;;;;;;;13.60;99.90;;;;;;4931361;29;20308;-72
2023/06/15 03:17:19;;;;;;;;;;;13.70;99.90;;;;;;4932165;28;20364;-73
2023/06/15 03:19:46;;;;;;;;;;;13.70;99.90;;;;;;4925827;29;20009;-72
2023/06/15 03:22:14;;;;;;;;;;;13.80;99.90;;;;;;4930622;29;19915;-73
2023/06/15 03:24:41;;;;;;;;;;;13.70;99.90;;;;;;4907911;29;19942;-72
2023/06/15 03:27:10;;;;;;;;;;;13.70;99.90;;;;;;4935555;29;20260;-72
2023/06/15 03:29:37;;;;;;;;;;;13.70;99.90;;;;;;4934256;28;19910;-72
2023/06/15 03:32:06;;;;;;;;;;;13.70;99.90;;;;;;4933285;29;20006;-72
2023/06/15 03:34:33;;;;;;;;;;;13.80;99.90;;;;;;4938737;29;19922;-72
2023/06/15 03:37:08;;;;;;;;;;;13.90;99.90;;;;;;4930139;29;19919;-73
2023/06/15 03:39:37;;;;;;;;;;;14.00;99.90;;;;;;4932530;29;20001;-72
2023/06/15 03:42:03;;;;;;;;;;;14.10;99.90;;;;;;4931454;29;19918;-72
2023/06/15 03:44:31;;;;;;;;;;;14.20;99.90;;;;;;4937390;29;19970;-73
2023/06/15 03:47:00;;;;;;;;;;;14.20;99.90;;;;;;4935839;29;20025;-73
2023/06/15 03:49:25;;;;;;;;;;;14.30;99.90;;;;;;4933507;29;19970;-73
2023/06/15 03:51:51;;;;;;;;;;;14.30;99.90;;;;;;4931932;29;19914;-72
2023/06/15 03:54:16;;;;;;;;;;;14.50;99.90;;;;;;4913548;29;20266;-73
2023/06/15 03:56:43;;;;;;;;;;;14.50;99.90;;;;;;4937522;29;19977;-72
2023/06/15 03:59:10;;;;;;;;;;;14.60;99.90;;;;;;4930100;29;19938;-72
2023/06/15 04:01:42;;;;;;;;;;;14.70;99.90;;;;;;4952456;28;19910;-72
2023/06/15 04:04:09;;;;;;;;;;;14.80;99.90;;;;;;4932326;29;19934;-73
2023/06/15 04:06:37;;;;;;;;;;;14.80;99.90;;;;;;4937685;29;20267;-72
2023/06/15 04:09:09;;;;;;;;;;;14.80;99.90;;;;;;4934235;29;19941;-72
2023/06/15 04:11:34;;;;;;;;;;;14.90;99.90;;;;;;4935328;28;19950;-72
2023/06/15 04:14:02;;;;;;;;;;;15.00;99.90;;;;;;4927992;28;20612;-73
2023/06/15 04:16:28;;;;;;;;;;;15.10;99.90;;;;;;4930471;29;19914;-72
2023/06/15 04:18:56;;;;;;;;;;;15.10;99.90;;;;;;4935464;29;19919;-78
2023/06/15 04:21:22;;;;;;;;;;;15.00;99.90;;;;;;4930758;29;19918;-72
2023/06/15 04:23:49;;;;;;;;;;;14.90;99.90;;;;;;4937913;29;19915;-72
2023/06/15 04:26:14;;;;;;;;;;;15.00;99.90;;;;;;4922402;29;19910;-72
2023/06/15 04:28:45;;;;;;;;;;;15.10;99.90;;;;;;4932955;29;19914;-72
2023/06/15 04:31:12;;;;;;;;;;;15.30;99.90;;;;;;4934205;29;19993;-72
2023/06/15 04:33:42;;;;;;;;;;;15.30;99.90;;;;;;4935206;29;19919;-72
2023/06/15 04:36:11;;;;;;;;;;;15.30;99.90;;;;;;4935096;29;19910;-72
2023/06/15 04:38:46;;;;;;;;;;;15.30;99.90;;;;;;4945101;28;20316;-73
2023/06/15 04:41:16;;;;;;;;;;;15.50;99.90;;;;;;4907203;29;19910;-72
2023/06/15 04:43:43;;;;;;;;;;;15.80;99.90;;;;;;4917451;29;19926;-72
2023/06/15 04:46:14;;;;;;;;;;;16.10;99.90;;;;;;4927205;29;19910;-72
2023/06/15 04:48:43;;;;;;;;;;;16.30;99.90;;;;;;4930560;29;19911;-73
2023/06/15 04:51:15;;;;;;;;;;;16.50;99.90;;;;;;4926793;29;19914;-72
2023/06/15 04:53:42;;;;;;;;;;;16.70;99.90;;;;;;4924609;29;19942;-73
2023/06/15 04:56:10;;;;;;;;;;;16.80;99.90;;;;;;4924531;29;19922;-72
2023/06/15 04:58:39;;;;;;;;;;;16.70;99.90;;;;;;4929746;29;19914;-72
2023/06/15 05:01:07;;;;;;;;;;;16.80;99.90;;;;;;4933711;29;20337;-73
2023/06/15 05:03:34;;;;;;;;;;;17.00;99.90;;;;;;4935155;28;19926;-72
2023/06/15 05:06:02;;;;;;;;;;;17.00;99.90;;;;;;4929189;29;19934;-72
2023/06/15 05:08:28;;;;;;;;;;;17.20;99.90;;;;;;4931221;29;19993;-72
2023/06/15 05:11:08;;;;;;;;;;;17.50;99.90;;;;;;4931830;29;20009;-72
2023/06/15 05:13:33;;;;;;;;;;;17.60;99.90;;;;;;4928862;29;19946;-71
2023/06/15 05:15:59;;;;;;;;;;;17.90;99.90;;;;;;4934801;29;19956;-71
2023/06/15 05:18:25;;;;;;;;;;;18.10;99.90;;;;;;4929078;29;19918;-72
2023/06/15 05:20:58;;;;;;;;;;;18.30;99.90;;;;;;4947338;28;19915;-73
2023/06/15 05:23:24;;;;;;;;;;;18.40;99.90;;;;;;4931911;29;20743;-72
2023/06/15 05:25:54;;;;;;;;;;;18.50;99.90;;;;;;4903955;29;19997;-72
2023/06/15 05:28:20;;;;;;;;;;;18.50;99.90;;;;;;4932961;29;19910;-72
2023/06/15 05:30:46;;;;;;;;;;;18.20;99.90;;;;;;4927583;28;19965;-71
2023/06/15 05:33:15;;;;;;;;;;;18.10;99.90;;;;;;4928280;29;19998;-72
2023/06/15 05:35:59;;;;;;;;;;;18.10;99.90;;;;;;4937559;28;20428;-77
2023/06/15 05:38:36;;;;;;;;;;;17.90;99.90;;;;;;4937444;28;19961;-77
2023/06/15 05:41:05;;;;;;;;;;;17.90;99.90;;;;;;4926123;29;19926;-77
2023/06/15 05:43:33;;;;;;;;;;;18.00;99.90;;;;;;4930972;29;19919;-77
2023/06/15 05:46:06;;;;;;;;;;;18.10;99.90;;;;;;4924525;29;20050;-77
2023/06/15 05:48:50;;;;;;;;;;;18.40;99.90;;;;;;4925256;28;19923;-77
2023/06/15 05:51:18;;;;;;;;;;;18.60;99.90;;;;;;4934187;28;19911;-77
2023/06/15 05:53:45;;;;;;;;;;;19.30;99.90;;;;;;4914979;29;19925;-78
2023/06/15 05:56:11;;;;;;;;;;;19.80;99.90;;;;;;4929564;29;19924;-78
2023/06/15 05:58:40;;;;;;;;;;;20.30;99.90;;;;;;4926307;29;19918;-77
2023/06/15 06:01:07;;;;;;;;;;;20.60;99.90;;;;;;4925310;29;19947;-78
2023/06/15 06:03:43;;;;;;;;;;;21.00;99.90;;;;;;4926624;29;19919;-78
2023/06/15 06:06:09;;;;;;;;;;;21.40;99.90;;;;;;4926623;29;19944;-77
2023/06/15 06:08:37;;;;;;;;;;;21.20;99.90;;;;;;4934818;29;19919;-78
2023/06/15 06:11:07;;;;;;;;;;;21.10;99.90;;;;;;4932113;29;19962;-77
2023/06/15 06:13:41;;;;;;;;;;;20.50;99.90;;;;;;4922250;29;20028;-77
2023/06/15 06:16:23;;;;;;;;;;;20.70;99.90;;;;;;4932731;29;19962;-77
2023/06/15 06:18:52;;;;;;;;;;;20.90;99.90;;;;;;4928691;29;19942;-77
2023/06/15 06:21:17;;;;;;;;;;;21.70;99.90;;;;;;4930454;29;20002;-77
2023/06/15 06:23:47;;;;;;;;;;;21.70;99.90;;;;;;4909437;29;19989;-77
2023/06/15 06:26:19;;;;;;;;;;;21.90;99.90;;;;;;4921680;29;19950;-78
2023/06/15 06:28:52;;;;;;;;;;;22.60;97.90;;;;;;4924077;29;19917;-78
2023/06/15 06:31:21;;;;;;;;;;;24.10;96.50;;;;;;4923120;29;19915;-77
2023/06/15 06:33:46;;;;;;;;;;;24.50;94.40;;;;;;4929780;29;19922;-77
2023/06/15 06:36:15;;;;;;;;;;;24.60;94.90;;;;;;4928310;29;19915;-76
2023/06/15 06:38:42;;;;;;;;;;;24.90;93.50;;;;;;4945004;28;19934;-77
2023/06/15 06:41:13;;;;;;;;;;;25.00;92.50;;;;;;4930121;29;19911;-77
2023/06/15 06:43:40;;;;;;;;;;;25.80;91.40;;;;;;4943761;29;19914;-79
2023/06/15 06:46:13;;;;;;;;;;;25.00;91.00;;;;;;4943215;28;20435;-79
2023/06/15 06:48:45;;;;;;;;;;;24.70;91.50;;;;;;4983199;23;19927;-78
2023/06/15 06:51:17;;;;;;;;;;;26.00;86.30;;;;;;4926858;29;19941;-78
2023/06/15 06:53:46;;;;;;;;;;;25.80;86.50;;;;;;4917967;29;19925;-78
2023/06/15 06:56:13;;;;;;;;;;;25.60;87.50;;;;;;4933387;29;19921;-79
2023/06/15 06:58:59;;;;;;;;;;;25.50;89.30;;;;;;4929320;29;20006;-80
2023/06/15 07:01:24;;;;;;;;;;;25.90;88.60;;;;;;4911166;29;19919;-78
2023/06/15 07:03:53;;;;;;;;;;;26.30;86.20;;;;;;4922752;29;19917;-84
2023/06/15 07:06:25;;;;;;;;;;;26.70;84.90;;;;;;4910652;29;19911;-83
2023/06/15 07:09:03;;;;;;;;;;;28.00;81.20;;;;;;4931988;29;19954;-83
2023/06/15 07:11:33;;;;;;;;;;;27.60;79.40;;;;;;4956013;28;19919;-81
2023/06/15 07:14:03;;;;;;;;;;;29.00;76.90;;;;;;4941431;28;19914;-80
2023/06/15 07:16:36;;;;;;;;;;;31.00;68.30;;;;;;4933055;29;19910;-80
2023/06/15 07:19:01;;;;;;;;;;;33.10;64.10;;;;;;4912064;29;19926;-80
2023/06/15 07:21:30;;;;;;;;;;;33.10;61.20;;;;;;4938288;28;19982;-80
2023/06/15 07:24:05;;;;;;;;;;;33.10;60.10;;;;;;4920026;29;19954;-80
2023/06/15 07:26:31;;;;;;;;;;;30.40;61.80;;;;;;4917896;29;19918;-80
2023/06/15 07:28:57;;;;;;;;;;;29.60;63.50;;;;;;4932647;29;20352;-81
2023/06/15 07:31:27;;;;;;;;;;;28.30;65.10;;;;;;4917929;29;19926;-82
2023/06/15 07:33:57;;;;;;;;;;;27.50;66.70;;;;;;4917746;29;19918;-81
2023/06/15 07:36:24;;;;;;;;;;;26.50;68.50;;;;;;4915764;29;19914;-84
2023/06/15 07:38:58;;;;;;;;;;;27.90;68.70;;;;;;4919636;29;19978;-81
2023/06/15 07:41:23;;;;;;;;;;;31.10;64.40;;;;;;4933145;29;19914;-81
2023/06/15 07:44:03;;;;;;;;;;;33.20;61.20;;;;;;4915308;29;19991;-80
2023/06/15 07:46:29;;;;;;;;;;;35.10;60.00;;;;;;4917164;29;19908;-80
2023/06/15 07:48:59;;;;;;;;;;;35.90;56.90;;;;;;4930265;29;20053;-80
2023/06/15 07:51:25;;;;;;;;;;;34.70;56.90;;;;;;4925751;29;19945;-80
2023/06/15 07:53:52;;;;;;;;;;;34.90;56.40;;;;;;4920985;29;20369;-81
2023/06/15 07:56:22;;;;;;;;;;;33.90;57.30;;;;;;4930887;29;19975;-79
2023/06/15 07:58:48;;;;;;;;;;;34.10;56.50;;;;;;4917536;29;19915;-80
2023/06/15 08:01:22;;;;;;;;;;;32.60;59.40;;;;;;4922190;29;20010;-80
2023/06/15 08:03:56;;;;;;;;;;;34.40;57.50;;;;;;4917701;29;19919;-81
2023/06/15 08:06:32;;;;;;;;;;;36.10;54.90;;;;;;4931934;29;19985;-80
2023/06/15 08:09:01;;;;;;;;;;;36.50;53.10;;;;;;4934196;29;19930;-82
2023/06/15 08:11:34;;;;;;;;;;;35.40;52.00;;;;;;4915319;29;20055;-83
2023/06/15 08:14:00;;;;;;;;;;;32.00;54.90;;;;;;4913563;29;19916;-82
2023/06/15 08:16:30;;;;;;;;;;;30.50;57.40;;;;;;4927732;29;19922;-83
2023/06/15 08:19:02;;;;;;;;;;;29.20;59.00;;;;;;4924305;29;19911;-83
2023/06/15 08:21:32;;;;;;;;;;;28.70;60.20;;;;;;4916974;29;19972;-82
2023/06/15 08:24:10;;;;;;;;;;;28.30;61.20;;;;;;4914627;29;19974;-81
2023/06/15 08:26:42;;;;;;;;;;;28.00;61.50;;;;;;4917917;29;19966;-81
2023/06/15 08:29:08;;;;;;;;;;;27.80;61.70;;;;;;4933949;29;19958;-83
2023/06/15 08:31:38;;;;;;;;;;;30.30;60.10;;;;;;4898893;29;19923;-80
2023/06/15 08:34:08;;;;;;;;;;;33.30;56.30;;;;;;4929367;29;19919;-78
2023/06/15 08:36:37;;;;;;;;;;;32.60;54.80;;;;;;4928785;29;20268;-82
2023/06/15 08:39:05;;;;;;;;;;;32.30;54.60;;;;;;4930094;29;19949;-82
2023/06/15 08:41:39;;;;;;;;;;;31.70;56.10;;;;;;4923555;29;19926;-81
2023/06/15 08:44:13;;;;;;;;;;;32.60;55.60;;;;;;4921565;29;19922;-81
2023/06/15 08:46:39;;;;;;;;;;;34.90;54.10;;;;;;4889929;29;19925;-80
2023/06/15 08:49:09;;;;;;;;;;;36.70;51.80;;;;;;4900462;29;19919;-81
2023/06/15 08:51:39;;;;;;;;;;;38.30;50.50;;;;;;4895437;29;19950;-81
2023/06/15 08:54:08;;;;;;;;;;;38.70;48.90;;;;;;4891319;29;19919;-79
2023/06/15 08:56:39;;;;;;;;;;;37.50;49.50;;;;;;4896030;29;20317;-79
2023/06/15 08:59:06;;;;;;;;;;;34.70;49.80;;;;;;4897234;29;19919;-79
2023/06/15 09:01:32;;;;;;;;;;;31.50;53.00;;;;;;4901713;29;20600;-81
2023/06/15 09:04:02;;;;;;;;;;;30.40;53.70;;;;;;4897266;29;20774;-81
2023/06/15 09:06:29;;;;;;;;;;;32.70;55.10;;;;;;4896943;29;19915;-86
2023/06/15 09:08:56;;;;;;;;;;;33.70;50.10;;;;;;4897748;29;19966;-84
2023/06/15 09:11:27;;;;;;;;;;;34.00;51.00;;;;;;4897565;29;19911;-86
2023/06/15 09:13:58;;;;;;;;;;;32.30;52.30;;;;;;4895930;29;19919;-89
2023/06/15 09:16:24;;;;;;;;;;;31.50;54.10;;;;;;4895837;29;19935;-89
2023/06/15 09:19:03;;;;;;;;;;;30.90;53.00;;;;;;4902218;29;19911;-87
2023/06/15 09:24:31;;;;;;;;;;;28.80;55.90;;;;;;4896162;29;20293;-90
2023/06/15 09:32:43;;;;;;;;;;;28.00;57.00;;;;;;5048136;23;20284;-89
2023/06/15 09:35:08;;;;;;;;;;;28.80;58.20;;;;;;4977268;28;19977;-89
2023/06/15 09:42:42;;;;;;;;;;;28.70;56.40;;;;;;4963437;28;19937;-91
2023/06/15 09:45:08;;;;;;;;;;;28.60;56.40;;;;;;4941770;28;19966;-87
2023/06/15 09:47:39;;;;;;;;;;;30.50;54.50;;;;;;4944266;28;19911;-87
2023/06/15 09:50:10;;;;;;;;;;;32.20;52.10;;;;;;4946446;28;19921;-85
2023/06/15 09:52:42;;;;;;;;;;;32.60;51.50;;;;;;4947844;28;20443;-87
2023/06/15 09:55:10;;;;;;;;;;;31.50;49.60;;;;;;4947044;28;19918;-86
2023/06/15 09:57:37;;;;;;;;;;;29.70;53.10;;;;;;4945771;28;19916;-86
2023/06/15 10:00:07;;;;;;;;;;;28.70;54.80;;;;;;4968238;28;19918;-85
2023/06/15 10:02:35;;;;;;;;;;;29.70;55.40;;;;;;4949717;28;19968;-82
2023/06/15 10:05:05;;;;;;;;;;;30.00;55.00;;;;;;4953383;28;19918;-82
2023/06/15 10:07:38;;;;;;;;;;;30.40;53.80;;;;;;4969100;28;19918;-84
2023/06/15 10:10:05;;;;;;;;;;;31.50;52.60;;;;;;4970674;28;20000;-84
2023/06/15 10:12:39;;;;;;;;;;;30.50;54.60;;;;;;4955051;28;19914;-84
2023/06/15 10:15:12;;;;;;;;;;;31.80;52.70;;;;;;4972580;28;19918;-84
2023/06/15 10:17:40;;;;;;;;;;;33.20;50.20;;;;;;4939686;28;20609;-85
2023/06/15 10:20:16;;;;;;;;;;;35.10;49.90;;;;;;4950526;28;19910;-83
2023/06/15 10:22:51;;;;;;;;;;;36.40;47.80;;;;;;4947852;28;19915;-84
2023/06/15 10:25:30;;;;;;;;;;;37.80;47.70;;;;;;4955385;28;19914;-84
2023/06/15 10:28:09;;;;;;;;;;;37.40;47.70;;;;;;4957787;28;19917;-85
2023/06/15 10:30:37;;;;;;;;;;;38.30;46.10;;;;;;4938172;29;19914;-86
2023/06/15 10:33:24;;;;;;;;;;;36.90;45.30;;;;;;4959300;28;19919;-87
2023/06/15 10:35:55;;;;;;;;;;;35.30;47.00;;;;;;4945700;28;19970;-86
2023/06/15 10:38:27;;;;;;;;;;;33.40;48.60;;;;;;4948481;28;19954;-87
2023/06/15 10:40:53;;;;;;;;;;;33.50;49.10;;;;;;4943209;29;19929;-88
2023/06/15 10:43:21;;;;;;;;;;;32.00;50.10;;;;;;4934494;29;19922;-88
2023/06/15 10:45:57;;;;;;;;;;;31.80;50.80;;;;;;4935309;28;19910;-84
2023/06/15 10:48:51;;;;;;;;;;;31.50;51.70;;;;;;4936376;28;20279;-86
2023/06/15 10:51:29;;;;;;;;;;;33.00;51.80;;;;;;4946407;28;20048;-86
2023/06/15 10:53:59;;;;;;;;;;;32.80;51.00;;;;;;4928108;28;19914;-86
2023/06/15 10:56:27;;;;;;;;;;;33.60;51.80;;;;;;4934758;29;20002;-87
2023/06/15 10:59:00;;;;;;;;;;;34.70;50.40;;;;;;4934869;28;19920;-87
2023/06/15 11:01:32;;;;;;;;;;;33.30;49.80;;;;;;4937917;28;19990;-87
2023/06/15 11:03:58;;;;;;;;;;;31.70;49.40;;;;;;4935893;28;19958;-86
2023/06/15 11:06:36;;;;;;;;;;;30.70;50.70;;;;;;4953107;28;20378;-84
2023/06/15 11:09:32;;;;;;;;;;;29.10;51.20;;;;;;4934107;29;19920;-85
2023/06/15 11:25:48;;;;;;;;;;;26.30;55.90;;;;;;6030763;23;19916;-82
2023/06/15 11:28:21;;;;;;;;;;;26.70;55.90;;;;;;5355216;23;19950;-81
2023/06/15 11:30:53;;;;;;;;;;;26.90;53.60;;;;;;4972429;28;19953;-83
2023/06/15 11:36:24;;;;;;;;;;;26.10;54.10;;;;;;5950296;23;20143;-80
2023/06/15 11:38:54;;;;;;;;;;;24.80;56.70;;;;;;4948777;28;19911;-78
2023/06/15 11:41:29;;;;;;;;;;;25.50;59.60;;;;;;4957533;28;19918;-79
2023/06/15 11:43:55;;;;;;;;;;;25.90;58.60;;;;;;4951348;28;20265;-79
2023/06/15 11:46:26;;;;;;;;;;;26.30;55.90;;;;;;4974477;28;19914;-82
2023/06/15 11:48:55;;;;;;;;;;;26.60;52.80;;;;;;5670936;23;19913;-73
2023/06/15 11:51:21;;;;;;;;;;;26.20;53.80;;;;;;4970420;28;20013;-73
2023/06/15 11:53:46;;;;;;;;;;;26.00;56.50;;;;;;4964430;28;19937;-73
2023/06/15 11:56:13;;;;;;;;;;;25.70;56.90;;;;;;4962964;28;19918;-72
2023/06/15 11:58:43;;;;;;;;;;;25.40;57.60;;;;;;4978861;28;19910;-73
2023/06/15 12:01:12;;;;;;;;;;;25.40;57.90;;;;;;4970066;28;19918;-73
2023/06/15 12:03:40;;;;;;;;;;;25.90;56.70;;;;;;4967313;28;19915;-73
2023/06/15 12:06:05;;;;;;;;;;;26.20;56.70;;;;;;4977273;28;20563;-72
2023/06/15 12:08:33;;;;;;;;;;;26.30;56.50;;;;;;4968053;28;19914;-71
2023/06/15 12:10:59;;;;;;;;;;;26.40;56.40;;;;;;4966880;28;20061;-72
2023/06/15 12:13:27;;;;;;;;;;;26.50;57.10;;;;;;4966370;28;20382;-72
2023/06/15 12:15:54;;;;;;;;;;;26.60;56.90;;;;;;4962994;28;19951;-72
2023/06/15 12:18:20;;;;;;;;;;;26.70;56.90;;;;;;4964709;28;19920;-72
2023/06/15 12:20:47;;;;;;;;;;;26.90;57.30;;;;;;4961154;28;19996;-73
2023/06/15 12:23:30;;;;;;;;;;;26.90;56.10;;;;;;4965712;28;19917;-72
2023/06/15 12:25:59;;;;;;;;;;;26.90;56.50;;;;;;4962625;28;20276;-74
2023/06/15 12:28:25;;;;;;;;;;;26.70;54.50;;;;;;4960526;28;19918;-72
2023/06/15 12:30:55;;;;;;;;;;;26.60;55.90;;;;;;4973695;28;19910;-72
2023/06/15 12:33:31;;;;;;;;;;;26.60;55.80;;;;;;4964469;28;20594;-72
2023/06/15 12:36:02;;;;;;;;;;;26.50;56.60;;;;;;4960273;28;21342;-78
2023/06/15 12:38:42;;;;;;;;;;;26.60;56.60;;;;;;4966916;28;19977;-75
2023/06/15 12:41:13;;;;;;;;;;;26.60;57.40;;;;;;4970594;28;19917;-74
2023/06/15 12:43:39;;;;;;;;;;;25.90;58.00;;;;;;4970280;28;19910;-78
2023/06/15 12:46:17;;;;;;;;;;;26.10;57.50;;;;;;4962999;28;20053;-76
2023/06/15 12:48:42;;;;;;;;;;;25.90;56.40;;;;;;4969450;28;19985;-77
2023/06/15 12:51:12;;;;;;;;;;;25.90;56.80;;;;;;4976259;28;19965;-76
2023/06/15 12:53:40;;;;;;;;;;;26.10;57.70;;;;;;4964945;28;19925;-75
2023/06/15 12:56:06;;;;;;;;;;;26.40;57.70;;;;;;4958138;28;19914;-76
2023/06/15 12:58:34;;;;;;;;;;;26.60;57.10;;;;;;4968451;28;20052;-77
2023/06/15 13:01:00;;;;;;;;;;;26.80;58.40;;;;;;4958877;28;20056;-73
2023/06/15 13:03:26;;;;;;;;;;;26.80;57.80;;;;;;4964385;28;20453;-73
2023/06/15 13:05:53;;;;;;;;;;;26.90;56.80;;;;;;4962247;28;19910;-72
2023/06/15 13:08:19;;;;;;;;;;;26.90;54.90;;;;;;4957078;28;19911;-74
2023/06/15 13:10:45;;;;;;;;;;;27.00;55.40;;;;;;4965260;28;19914;-74
2023/06/15 13:13:12;;;;;;;;;;;26.70;54.50;;;;;;4959461;28;20248;-74
2023/06/15 13:15:38;;;;;;;;;;;26.70;55.70;;;;;;4964830;28;19997;-73
2023/06/15 13:18:04;;;;;;;;;;;26.20;54.80;;;;;;4968286;28;20009;-73
2023/06/15 13:20:29;;;;;;;;;;;26.20;55.40;;;;;;4960016;28;19969;-73
2023/06/15 13:22:55;;;;;;;;;;;26.40;55.00;;;;;;4966271;28;19918;-74
2023/06/15 13:25:23;;;;;;;;;;;26.60;55.90;;;;;;4962008;28;19910;-73
2023/06/15 13:27:49;;;;;;;;;;;26.50;55.70;;;;;;4963690;28;19950;-73
2023/06/15 13:30:16;;;;;;;;;;;26.40;54.30;;;;;;4959502;28;19961;-74
2023/06/15 13:32:43;;;;;;;;;;;26.20;56.20;;;;;;4964906;28;19922;-73
2023/06/15 13:35:11;;;;;;;;;;;25.90;57.00;;;;;;4967277;28;20669;-74
2023/06/15 13:37:41;;;;;;;;;;;25.90;57.10;;;;;;4966116;28;19910;-74
2023/06/15 13:40:07;;;;;;;;;;;26.10;57.10;;;;;;4956432;28;20434;-74
2023/06/15 13:42:36;;;;;;;;;;;26.40;57.20;;;;;;4961989;28;20048;-74
2023/06/15 13:45:28;;;;;;;;;;;26.60;55.50;;;;;;4979256;28;20052;-74
2023/06/15 13:47:54;;;;;;;;;;;26.60;56.40;;;;;;4979087;28;20245;-74
2023/06/15 13:50:22;;;;;;;;;;;26.30;57.50;;;;;;4972733;28;20303;-74
2023/06/15 13:52:51;;;;;;;;;;;26.20;56.50;;;;;;4970280;28;19948;-74
2023/06/15 13:55:17;;;;;;;;;;;26.30;56.80;;;;;;4967516;28;19920;-74
2023/06/15 13:57:45;;;;;;;;;;;26.40;56.60;;;;;;4978401;28;20521;-75
2023/06/15 14:00:12;;;;;;;;;;;26.40;57.10;;;;;;4960962;28;19914;-73
2023/06/15 14:02:38;;;;;;;;;;;26.40;56.00;;;;;;4990792;28;20814;-74
2023/06/15 14:05:07;;;;;;;;;;;26.30;56.00;;;;;;4967015;28;20276;-74
2023/06/15 14:07:36;;;;;;;;;;;26.10;56.80;;;;;;4966718;28;19918;-75
2023/06/15 14:10:03;;;;;;;;;;;25.60;57.30;;;;;;4976560;28;19961;-74
2023/06/15 14:12:28;;;;;;;;;;;25.80;57.50;;;;;;4967955;28;19937;-74
2023/06/15 14:14:58;;;;;;;;;;;25.90;57.10;;;;;;4972607;28;19971;-73
2023/06/15 14:17:26;;;;;;;;;;;25.90;57.00;;;;;;4970997;28;19922;-74
2023/06/15 14:19:57;;;;;;;;;;;26.00;57.10;;;;;;4971614;28;19910;-74
2023/06/15 14:22:23;;;;;;;;;;;26.10;57.30;;;;;;4972563;28;19921;-74
2023/06/15 14:24:55;;;;;;;;;;;26.20;56.90;;;;;;4969792;28;20010;-75
2023/06/15 14:27:21;;;;;;;;;;;26.00;57.40;;;;;;4966233;28;19921;-74
2023/06/15 14:29:49;;;;;;;;;;;26.10;57.30;;;;;;4966115;28;19910;-74
2023/06/15 14:32:17;;;;;;;;;;;26.00;57.10;;;;;;4972783;28;19914;-74
2023/06/15 14:34:44;;;;;;;;;;;26.10;57.80;;;;;;4959011;28;20020;-74
2023/06/15 14:37:11;;;;;;;;;;;26.20;58.10;;;;;;4964818;28;19940;-74
2023/06/15 14:39:38;;;;;;;;;;;26.30;57.00;;;;;;4978809;28;19910;-74
2023/06/15 14:42:04;;;;;;;;;;;26.30;56.40;;;;;;4968014;28;19925;-74
2023/06/15 14:44:32;;;;;;;;;;;26.20;57.00;;;;;;4974570;28;19910;-74
2023/06/15 14:46:58;;;;;;;;;;;26.00;58.30;;;;;;4968421;28;19918;-74
2023/06/15 14:49:24;;;;;;;;;;;25.90;58.50;;;;;;4973056;28;19922;-74
2023/06/15 14:51:59;;;;;;;;;;;25.90;58.40;;;;;;4963697;28;19910;-75
2023/06/15 14:54:26;;;;;;;;;;;26.00;59.00;;;;;;4965869;28;19933;-74
2023/06/15 14:56:58;;;;;;;;;;;26.00;58.70;;;;;;4969634;28;19910;-74
2023/06/15 14:59:36;;;;;;;;;;;26.00;58.30;;;;;;4970034;28;19978;-75